TGPY/GND METAR and TAF weather

Enter ICAO airport designator
Station Type Date Time Source
TGPY METAR 2019/10/15 21:00 UTC NOAA

TGPY 152100Z 06010KT 9999 FEW020 30/24 Q1011 NOSIG


Station Type Date Time Source
TGPY Decoded METAR 2019/10/15 21:00 UTC NOAA

Point Salines Airport, Grenada (TGPY) 12-00N 061-47W 7M
Oct 15, 2019 - 05:00 PM EDT / 2019.10.15 2100 UTC
Wind: from the ENE (060 degrees) at 12 MPH (10 KT):0
Visibility: greater than 7 mile(s):0
Sky conditions: mostly clear
Temperature: 86 F (30 C)
Heat index: 95.0 F (35.0 C):1
Dew Point: 75 F (24 C)
Relative Humidity: 70%
Pressure (altimeter): 29.85 in. Hg (1011 hPa)
ob: TGPY 152100Z 06010KT 9999 FEW020 30/24 Q1011 NOSIG
cycle: 21

Station Type Date Time Source
TGPY TAF 2019/10/15 18:32 UTC NOAA

TAF TGPY 151600Z 1518/1618 08010KT 9999 FEW020

Example: see airport list